sensor_id;sensor_type;location;lat;lon;timestamp;P1;durP1;ratioP1;P2;durP2;ratioP2
72813;SDS011;60945;48.516;-2.768;2023-02-28T00:01:22;8.27;;;5.10;;
72813;SDS011;60945;48.516;-2.768;2023-02-28T00:03:48;9.48;;;5.60;;
72813;SDS011;60945;48.516;-2.768;2023-02-28T00:06:14;10.05;;;5.93;;
72813;SDS011;60945;48.516;-2.768;2023-02-28T00:08:39;9.32;;;5.60;;
72813;SDS011;60945;48.516;-2.768;2023-02-28T00:11:06;5.78;;;5.18;;
72813;SDS011;60945;48.516;-2.768;2023-02-28T00:13:34;7.65;;;6.00;;
72813;SDS011;60945;48.516;-2.768;2023-02-28T00:16:09;11.38;;;5.75;;
72813;SDS011;60945;48.516;-2.768;2023-02-28T00:18:38;10.88;;;6.25;;
72813;SDS011;60945;48.516;-2.768;2023-02-28T00:21:04;7.30;;;5.65;;
72813;SDS011;60945;48.516;-2.768;2023-02-28T00:23:31;9.05;;;5.70;;
72813;SDS011;60945;48.516;-2.768;2023-02-28T00:26:00;8.13;;;5.82;;
72813;SDS011;60945;48.516;-2.768;2023-02-28T00:28:25;7.13;;;5.07;;
72813;SDS011;60945;48.516;-2.768;2023-02-28T00:30:51;6.53;;;5.15;;
72813;SDS011;60945;48.516;-2.768;2023-02-28T00:33:19;11.57;;;5.40;;
72813;SDS011;60945;48.516;-2.768;2023-02-28T00:35:45;8.15;;;5.50;;
72813;SDS011;60945;48.516;-2.768;2023-02-28T00:38:11;12.25;;;6.10;;
72813;SDS011;60945;48.516;-2.768;2023-02-28T00:40:38;9.18;;;6.05;;
72813;SDS011;60945;48.516;-2.768;2023-02-28T00:43:03;9.20;;;5.93;;
72813;SDS011;60945;48.516;-2.768;2023-02-28T00:45:29;9.80;;;6.35;;
72813;SDS011;60945;48.516;-2.768;2023-02-28T00:47:55;8.35;;;6.53;;
72813;SDS011;60945;48.516;-2.768;2023-02-28T00:50:20;9.88;;;6.40;;
72813;SDS011;60945;48.516;-2.768;2023-02-28T00:52:47;8.70;;;6.20;;
72813;SDS011;60945;48.516;-2.768;2023-02-28T00:55:13;9.23;;;6.63;;
72813;SDS011;60945;48.516;-2.768;2023-02-28T00:57:39;9.65;;;7.32;;
72813;SDS011;60945;48.516;-2.768;2023-02-28T01:00:05;8.07;;;7.10;;
72813;SDS011;60945;48.516;-2.768;2023-02-28T01:02:32;10.48;;;7.75;;
72813;SDS011;60945;48.516;-2.768;2023-02-28T01:04:58;10.68;;;7.03;;
72813;SDS011;60945;48.516;-2.768;2023-02-28T01:07:23;9.93;;;7.75;;
72813;SDS011;60945;48.516;-2.768;2023-02-28T01:09:49;14.38;;;8.00;;
72813;SDS011;60945;48.516;-2.768;2023-02-28T01:12:15;15.70;;;7.97;;
72813;SDS011;60945;48.516;-2.768;2023-02-28T01:14:41;11.10;;;7.78;;
72813;SDS011;60945;48.516;-2.768;2023-02-28T01:17:07;12.63;;;7.95;;
72813;SDS011;60945;48.516;-2.768;2023-02-28T01:19:33;12.60;;;7.85;;
72813;SDS011;60945;48.516;-2.768;2023-02-28T01:22:02;11.90;;;7.97;;
72813;SDS011;60945;48.516;-2.768;2023-02-28T01:24:28;12.70;;;9.15;;
72813;SDS011;60945;48.516;-2.768;2023-02-28T01:26:54;10.15;;;8.45;;
72813;SDS011;60945;48.516;-2.768;2023-02-28T01:29:20;13.30;;;8.38;;
72813;SDS011;60945;48.516;-2.768;2023-02-28T01:31:48;10.10;;;8.40;;
72813;SDS011;60945;48.516;-2.768;2023-02-28T01:34:13;13.93;;;8.80;;
72813;SDS011;60945;48.516;-2.768;2023-02-28T01:36:39;12.82;;;8.82;;
72813;SDS011;60945;48.516;-2.768;2023-02-28T01:39:04;12.00;;;8.90;;
72813;SDS011;60945;48.516;-2.768;2023-02-28T01:41:32;12.38;;;8.88;;
72813;SDS011;60945;48.516;-2.768;2023-02-28T01:44:04;11.52;;;8.75;;
72813;SDS011;60945;48.516;-2.768;2023-02-28T01:46:32;12.77;;;8.77;;
72813;SDS011;60945;48.516;-2.768;2023-02-28T01:51:50;11.63;;;9.40;;
72813;SDS011;60945;48.516;-2.768;2023-02-28T01:54:24;11.40;;;9.00;;
72813;SDS011;60945;48.516;-2.768;2023-02-28T01:56:54;14.30;;;9.60;;
72813;SDS011;60945;48.516;-2.768;2023-02-28T01:59:26;11.85;;;9.30;;
72813;SDS011;60945;48.516;-2.768;2023-02-28T02:01:56;10.50;;;9.35;;
72813;SDS011;60945;48.516;-2.768;2023-02-28T02:04:23;16.90;;;11.52;;
72813;SDS011;60945;48.516;-2.768;2023-02-28T02:06:51;11.20;;;9.30;;
72813;SDS011;60945;48.516;-2.768;2023-02-28T02:09:17;11.98;;;9.15;;
72813;SDS011;60945;48.516;-2.768;2023-02-28T02:11:43;11.13;;;9.70;;
72813;SDS011;60945;48.516;-2.768;2023-02-28T02:14:12;13.73;;;9.82;;
72813;SDS011;60945;48.516;-2.768;2023-02-28T02:37:26;13.80;;;9.90;;
72813;SDS011;60945;48.516;-2.768;2023-02-28T02:40:19;13.73;;;9.90;;
72813;SDS011;60945;48.516;-2.768;2023-02-28T02:48:27;11.10;;;9.82;;
72813;SDS011;60945;48.516;-2.768;2023-02-28T02:50:56;11.02;;;9.45;;
72813;SDS011;60945;48.516;-2.768;2023-02-28T02:53:28;14.55;;;9.90;;
72813;SDS011;60945;48.516;-2.768;2023-02-28T02:55:58;10.43;;;9.15;;
72813;SDS011;60945;48.516;-2.768;2023-02-28T02:58:27;12.98;;;9.68;;
72813;SDS011;60945;48.516;-2.768;2023-02-28T03:00:58;12.43;;;9.63;;
72813;SDS011;60945;48.516;-2.768;2023-02-28T03:03:26;14.35;;;10.07;;
72813;SDS011;60945;48.516;-2.768;2023-02-28T03:05:56;11.07;;;8.82;;
72813;SDS011;60945;48.516;-2.768;2023-02-28T03:08:23;10.55;;;9.35;;
72813;SDS011;60945;48.516;-2.768;2023-02-28T03:10:50;11.20;;;9.32;;
72813;SDS011;60945;48.516;-2.768;2023-02-28T03:16:34;13.98;;;9.85;;
72813;SDS011;60945;48.516;-2.768;2023-02-28T03:24:56;10.48;;;8.65;;
72813;SDS011;60945;48.516;-2.768;2023-02-28T03:27:40;11.18;;;8.77;;
72813;SDS011;60945;48.516;-2.768;2023-02-28T03:30:39;10.48;;;9.35;;
72813;SDS011;60945;48.516;-2.768;2023-02-28T03:33:32;14.25;;;9.38;;
72813;SDS011;60945;48.516;-2.768;2023-02-28T03:36:24;13.05;;;9.68;;
72813;SDS011;60945;48.516;-2.768;2023-02-28T03:38:58;13.32;;;9.50;;
72813;SDS011;60945;48.516;-2.768;2023-02-28T03:44:23;11.65;;;9.55;;
72813;SDS011;60945;48.516;-2.768;2023-02-28T03:46:54;14.30;;;9.50;;
72813;SDS011;60945;48.516;-2.768;2023-02-28T03:49:27;12.60;;;10.00;;
72813;SDS011;60945;48.516;-2.768;2023-02-28T03:52:02;16.05;;;9.80;;
72813;SDS011;60945;48.516;-2.768;2023-02-28T03:54:31;12.40;;;9.88;;
72813;SDS011;60945;48.516;-2.768;2023-02-28T03:59:54;13.43;;;9.52;;
72813;SDS011;60945;48.516;-2.768;2023-02-28T04:02:24;15.65;;;9.75;;
72813;SDS011;60945;48.516;-2.768;2023-02-28T04:04:50;14.02;;;9.10;;
72813;SDS011;60945;48.516;-2.768;2023-02-28T04:07:16;12.15;;;9.60;;
72813;SDS011;60945;48.516;-2.768;2023-02-28T04:09:42;12.05;;;9.32;;
72813;SDS011;60945;48.516;-2.768;2023-02-28T04:12:08;13.32;;;9.75;;
72813;SDS011;60945;48.516;-2.768;2023-02-28T04:14:34;12.95;;;9.60;;
72813;SDS011;60945;48.516;-2.768;2023-02-28T04:17:00;14.73;;;10.10;;
72813;SDS011;60945;48.516;-2.768;2023-02-28T04:19:26;13.02;;;10.07;;
72813;SDS011;60945;48.516;-2.768;2023-02-28T04:21:52;13.88;;;10.60;;
72813;SDS011;60945;48.516;-2.768;2023-02-28T04:24:19;13.63;;;10.65;;
72813;SDS011;60945;48.516;-2.768;2023-02-28T04:26:50;13.80;;;10.45;;
72813;SDS011;60945;48.516;-2.768;2023-02-28T04:29:18;15.52;;;10.95;;
72813;SDS011;60945;48.516;-2.768;2023-02-28T04:31:49;12.30;;;10.60;;
72813;SDS011;60945;48.516;-2.768;2023-02-28T04:34:15;14.35;;;11.15;;
72813;SDS011;60945;48.516;-2.768;2023-02-28T04:36:41;15.95;;;11.55;;
72813;SDS011;60945;48.516;-2.768;2023-02-28T04:39:07;14.85;;;12.25;;
72813;SDS011;60945;48.516;-2.768;2023-02-28T04:41:34;13.75;;;10.93;;
72813;SDS011;60945;48.516;-2.768;2023-02-28T04:44:00;14.10;;;11.57;;
72813;SDS011;60945;48.516;-2.768;2023-02-28T04:46:26;15.15;;;11.48;;
72813;SDS011;60945;48.516;-2.768;2023-02-28T04:48:53;13.88;;;10.68;;
72813;SDS011;60945;48.516;-2.768;2023-02-28T04:51:19;15.35;;;11.32;;
72813;SDS011;60945;48.516;-2.768;2023-02-28T04:53:45;15.68;;;12.10;;
72813;SDS011;60945;48.516;-2.768;2023-02-28T04:56:12;15.75;;;11.80;;
72813;SDS011;60945;48.516;-2.768;2023-02-28T04:58:39;17.75;;;11.43;;
72813;SDS011;60945;48.516;-2.768;2023-02-28T05:01:22;14.50;;;11.85;;
72813;SDS011;60945;48.516;-2.768;2023-02-28T05:03:49;16.27;;;12.10;;
72813;SDS011;60945;48.516;-2.768;2023-02-28T05:06:16;14.95;;;11.73;;
72813;SDS011;60945;48.516;-2.768;2023-02-28T05:08:42;13.57;;;11.18;;
72813;SDS011;60945;48.516;-2.768;2023-02-28T05:11:18;15.23;;;11.95;;
72813;SDS011;60945;48.516;-2.768;2023-02-28T05:13:46;14.48;;;12.18;;
72813;SDS011;60945;48.516;-2.768;2023-02-28T05:16:12;15.55;;;11.27;;
72813;SDS011;60945;48.516;-2.768;2023-02-28T05:18:38;15.02;;;11.65;;
72813;SDS011;60945;48.516;-2.768;2023-02-28T05:21:12;14.82;;;11.45;;
72813;SDS011;60945;48.516;-2.768;2023-02-28T05:23:51;14.95;;;11.77;;
72813;SDS011;60945;48.516;-2.768;2023-02-28T05:26:17;14.27;;;11.65;;
72813;SDS011;60945;48.516;-2.768;2023-02-28T05:28:43;20.73;;;11.90;;
72813;SDS011;60945;48.516;-2.768;2023-02-28T05:31:11;15.35;;;12.18;;
72813;SDS011;60945;48.516;-2.768;2023-02-28T05:33:37;19.73;;;11.98;;
72813;SDS011;60945;48.516;-2.768;2023-02-28T05:36:04;13.07;;;10.82;;
72813;SDS011;60945;48.516;-2.768;2023-02-28T05:38:30;18.58;;;16.63;;
72813;SDS011;60945;48.516;-2.768;2023-02-28T05:40:56;15.98;;;12.50;;
72813;SDS011;60945;48.516;-2.768;2023-02-28T05:43:25;15.77;;;11.65;;
72813;SDS011;60945;48.516;-2.768;2023-02-28T05:45:50;16.88;;;12.40;;
72813;SDS011;60945;48.516;-2.768;2023-02-28T05:48:16;14.13;;;11.68;;
72813;SDS011;60945;48.516;-2.768;2023-02-28T05:50:43;18.63;;;16.92;;
72813;SDS011;60945;48.516;-2.768;2023-02-28T05:53:11;16.15;;;11.20;;
72813;SDS011;60945;48.516;-2.768;2023-02-28T05:55:36;13.95;;;11.50;;
72813;SDS011;60945;48.516;-2.768;2023-02-28T05:58:03;13.50;;;11.68;;
72813;SDS011;60945;48.516;-2.768;2023-02-28T06:00:28;12.20;;;10.93;;
72813;SDS011;60945;48.516;-2.768;2023-02-28T06:02:54;12.65;;;10.20;;
72813;SDS011;60945;48.516;-2.768;2023-02-28T06:05:23;17.55;;;12.32;;
72813;SDS011;60945;48.516;-2.768;2023-02-28T06:07:49;16.42;;;11.52;;
72813;SDS011;60945;48.516;-2.768;2023-02-28T06:10:15;14.85;;;12.10;;
72813;SDS011;60945;48.516;-2.768;2023-02-28T06:12:40;16.00;;;11.15;;
72813;SDS011;60945;48.516;-2.768;2023-02-28T06:15:07;14.45;;;11.80;;
72813;SDS011;60945;48.516;-2.768;2023-02-28T06:17:37;15.00;;;12.43;;
72813;SDS011;60945;48.516;-2.768;2023-02-28T06:20:05;13.88;;;12.07;;
72813;SDS011;60945;48.516;-2.768;2023-02-28T06:22:32;16.20;;;12.45;;
72813;SDS011;60945;48.516;-2.768;2023-02-28T06:24:57;15.15;;;12.60;;
72813;SDS011;60945;48.516;-2.768;2023-02-28T06:27:23;17.20;;;13.50;;
72813;SDS011;60945;48.516;-2.768;2023-02-28T06:29:49;16.98;;;12.70;;
72813;SDS011;60945;48.516;-2.768;2023-02-28T06:32:18;17.25;;;11.98;;
72813;SDS011;60945;48.516;-2.768;2023-02-28T06:34:44;17.60;;;12.85;;
72813;SDS011;60945;48.516;-2.768;2023-02-28T06:37:10;15.75;;;12.98;;
72813;SDS011;60945;48.516;-2.768;2023-02-28T06:39:35;18.65;;;16.77;;
72813;SDS011;60945;48.516;-2.768;2023-02-28T06:42:01;17.80;;;13.63;;
72813;SDS011;60945;48.516;-2.768;2023-02-28T06:44:27;16.35;;;13.07;;
72813;SDS011;60945;48.516;-2.768;2023-02-28T06:49:27;17.98;;;13.05;;
72813;SDS011;60945;48.516;-2.768;2023-02-28T06:51:53;21.50;;;18.15;;
72813;SDS011;60945;48.516;-2.768;2023-02-28T06:54:19;18.90;;;15.07;;
72813;SDS011;60945;48.516;-2.768;2023-02-28T06:56:45;18.10;;;12.80;;
72813;SDS011;60945;48.516;-2.768;2023-02-28T06:59:11;19.33;;;13.13;;
72813;SDS011;60945;48.516;-2.768;2023-02-28T07:01:37;17.83;;;12.98;;
72813;SDS011;60945;48.516;-2.768;2023-02-28T07:04:04;18.15;;;12.88;;
72813;SDS011;60945;48.516;-2.768;2023-02-28T07:06:31;16.90;;;13.48;;
72813;SDS011;60945;48.516;-2.768;2023-02-28T07:08:57;17.02;;;15.00;;
72813;SDS011;60945;48.516;-2.768;2023-02-28T07:11:23;15.80;;;12.57;;
72813;SDS011;60945;48.516;-2.768;2023-02-28T07:13:53;15.60;;;12.38;;
72813;SDS011;60945;48.516;-2.768;2023-02-28T07:16:20;18.30;;;16.48;;
72813;SDS011;60945;48.516;-2.768;2023-02-28T07:18:47;17.95;;;12.25;;
72813;SDS011;60945;48.516;-2.768;2023-02-28T07:21:13;16.35;;;13.07;;
72813;SDS011;60945;48.516;-2.768;2023-02-28T07:23:39;18.75;;;16.20;;
72813;SDS011;60945;48.516;-2.768;2023-02-28T07:26:06;24.08;;;21.85;;
72813;SDS011;60945;48.516;-2.768;2023-02-28T07:28:36;18.65;;;16.73;;
72813;SDS011;60945;48.516;-2.768;2023-02-28T07:31:04;18.58;;;13.52;;
72813;SDS011;60945;48.516;-2.768;2023-02-28T07:33:30;15.55;;;12.70;;
72813;SDS011;60945;48.516;-2.768;2023-02-28T07:36:06;16.48;;;13.15;;
72813;SDS011;60945;48.516;-2.768;2023-02-28T07:38:34;21.63;;;19.73;;
72813;SDS011;60945;48.516;-2.768;2023-02-28T07:41:01;16.60;;;13.73;;
72813;SDS011;60945;48.516;-2.768;2023-02-28T07:43:29;21.98;;;19.83;;
72813;SDS011;60945;48.516;-2.768;2023-02-28T07:45:55;15.55;;;13.23;;
72813;SDS011;60945;48.516;-2.768;2023-02-28T07:48:26;14.05;;;12.55;;
72813;SDS011;60945;48.516;-2.768;2023-02-28T07:50:57;18.13;;;15.45;;
72813;SDS011;60945;48.516;-2.768;2023-02-28T07:53:24;22.80;;;20.70;;
72813;SDS011;60945;48.516;-2.768;2023-02-28T07:55:50;16.90;;;13.80;;
72813;SDS011;60945;48.516;-2.768;2023-02-28T07:58:18;16.45;;;13.85;;
72813;SDS011;60945;48.516;-2.768;2023-02-28T08:00:44;22.00;;;20.20;;
72813;SDS011;60945;48.516;-2.768;2023-02-28T08:03:13;16.77;;;14.38;;
72813;SDS011;60945;48.516;-2.768;2023-02-28T08:05:39;17.00;;;14.10;;
72813;SDS011;60945;48.516;-2.768;2023-02-28T08:08:05;17.85;;;13.48;;
72813;SDS011;60945;48.516;-2.768;2023-02-28T08:10:32;15.95;;;13.50;;
72813;SDS011;60945;48.516;-2.768;2023-02-28T08:12:58;15.10;;;13.10;;
72813;SDS011;60945;48.516;-2.768;2023-02-28T08:15:24;15.00;;;13.43;;
72813;SDS011;60945;48.516;-2.768;2023-02-28T08:17:50;15.77;;;13.93;;
72813;SDS011;60945;48.516;-2.768;2023-02-28T08:20:15;15.63;;;14.02;;
72813;SDS011;60945;48.516;-2.768;2023-02-28T08:22:44;14.82;;;13.43;;
72813;SDS011;60945;48.516;-2.768;2023-02-28T08:25:10;19.27;;;17.50;;
72813;SDS011;60945;48.516;-2.768;2023-02-28T08:27:35;17.10;;;15.32;;
72813;SDS011;60945;48.516;-2.768;2023-02-28T08:30:02;18.27;;;16.58;;
72813;SDS011;60945;48.516;-2.768;2023-02-28T08:32:28;17.27;;;15.68;;
72813;SDS011;60945;48.516;-2.768;2023-02-28T08:34:53;14.75;;;13.35;;
72813;SDS011;60945;48.516;-2.768;2023-02-28T08:37:19;14.35;;;12.85;;
72813;SDS011;60945;48.516;-2.768;2023-02-28T08:39:47;15.18;;;13.68;;
72813;SDS011;60945;48.516;-2.768;2023-02-28T08:42:13;19.13;;;17.50;;
72813;SDS011;60945;48.516;-2.768;2023-02-28T08:44:39;17.05;;;13.70;;
72813;SDS011;60945;48.516;-2.768;2023-02-28T08:47:05;18.33;;;16.80;;
72813;SDS011;60945;48.516;-2.768;2023-02-28T08:49:31;16.25;;;14.75;;
72813;SDS011;60945;48.516;-2.768;2023-02-28T08:51:57;14.95;;;13.57;;
72813;SDS011;60945;48.516;-2.768;2023-02-28T08:54:23;15.68;;;14.18;;
72813;SDS011;60945;48.516;-2.768;2023-02-28T08:56:49;15.35;;;13.95;;
72813;SDS011;60945;48.516;-2.768;2023-02-28T08:59:15;16.33;;;14.77;;
72813;SDS011;60945;48.516;-2.768;2023-02-28T09:01:40;14.65;;;13.43;;
72813;SDS011;60945;48.516;-2.768;2023-02-28T09:04:08;15.90;;;14.57;;
72813;SDS011;60945;48.516;-2.768;2023-02-28T09:06:35;15.57;;;14.13;;
72813;SDS011;60945;48.516;-2.768;2023-02-28T09:09:01;19.95;;;18.45;;
72813;SDS011;60945;48.516;-2.768;2023-02-28T09:11:29;14.40;;;13.20;;
72813;SDS011;60945;48.516;-2.768;2023-02-28T09:13:55;14.35;;;13.05;;
72813;SDS011;60945;48.516;-2.768;2023-02-28T09:16:20;14.40;;;13.15;;
72813;SDS011;60945;48.516;-2.768;2023-02-28T09:18:47;14.50;;;13.15;;
72813;SDS011;60945;48.516;-2.768;2023-02-28T09:21:16;13.75;;;12.65;;
72813;SDS011;60945;48.516;-2.768;2023-02-28T09:23:43;13.73;;;12.63;;
72813;SDS011;60945;48.516;-2.768;2023-02-28T09:26:14;13.88;;;12.60;;
72813;SDS011;60945;48.516;-2.768;2023-02-28T09:28:44;13.82;;;12.57;;
72813;SDS011;60945;48.516;-2.768;2023-02-28T09:31:14;16.80;;;15.43;;
72813;SDS011;60945;48.516;-2.768;2023-02-28T09:33:41;12.88;;;11.55;;
72813;SDS011;60945;48.516;-2.768;2023-02-28T09:36:07;16.63;;;15.43;;
72813;SDS011;60945;48.516;-2.768;2023-02-28T09:38:33;19.63;;;18.13;;
72813;SDS011;60945;48.516;-2.768;2023-02-28T09:41:03;22.92;;;21.30;;
72813;SDS011;60945;48.516;-2.768;2023-02-28T09:43:38;13.65;;;12.38;;
72813;SDS011;60945;48.516;-2.768;2023-02-28T09:48:50;12.52;;;11.32;;
72813;SDS011;60945;48.516;-2.768;2023-02-28T09:56:42;14.35;;;12.25;;
72813;SDS011;60945;48.516;-2.768;2023-02-28T10:01:37;13.70;;;12.30;;
72813;SDS011;60945;48.516;-2.768;2023-02-28T10:06:54;19.23;;;17.40;;
72813;SDS011;60945;48.516;-2.768;2023-02-28T10:09:23;14.23;;;11.63;;
72813;SDS011;60945;48.516;-2.768;2023-02-28T10:11:52;12.45;;;11.15;;
72813;SDS011;60945;48.516;-2.768;2023-02-28T10:14:23;13.50;;;12.10;;
72813;SDS011;60945;48.516;-2.768;2023-02-28T10:19:29;12.63;;;11.23;;
72813;SDS011;60945;48.516;-2.768;2023-02-28T10:22:19;12.38;;;11.07;;
72813;SDS011;60945;48.516;-2.768;2023-02-28T10:24:52;12.40;;;11.18;;
72813;SDS011;60945;48.516;-2.768;2023-02-28T10:27:20;17.35;;;15.85;;
72813;SDS011;60945;48.516;-2.768;2023-02-28T10:29:51;12.90;;;11.60;;
72813;SDS011;60945;48.516;-2.768;2023-02-28T10:32:39;15.85;;;14.25;;
72813;SDS011;60945;48.516;-2.768;2023-02-28T10:37:48;12.83;;;11.53;;
72813;SDS011;60945;48.516;-2.768;2023-02-28T10:42:56;20.70;;;19.08;;
72813;SDS011;60945;48.516;-2.768;2023-02-28T10:45:22;21.35;;;19.85;;
72813;SDS011;60945;48.516;-2.768;2023-02-28T10:50:36;17.73;;;16.27;;
72813;SDS011;60945;48.516;-2.768;2023-02-28T10:55:56;19.27;;;17.40;;
72813;SDS011;60945;48.516;-2.768;2023-02-28T10:58:27;14.18;;;12.23;;
72813;SDS011;60945;48.516;-2.768;2023-02-28T11:01:10;18.63;;;16.83;;
72813;SDS011;60945;48.516;-2.768;2023-02-28T11:04:01;17.40;;;13.15;;
72813;SDS011;60945;48.516;-2.768;2023-02-28T11:06:31;16.40;;;14.85;;
72813;SDS011;60945;48.516;-2.768;2023-02-28T11:09:00;14.23;;;12.05;;
72813;SDS011;60945;48.516;-2.768;2023-02-28T11:11:29;13.63;;;12.25;;
72813;SDS011;60945;48.516;-2.768;2023-02-28T11:14:15;14.63;;;12.15;;
72813;SDS011;60945;48.516;-2.768;2023-02-28T11:22:19;18.15;;;16.55;;
72813;SDS011;60945;48.516;-2.768;2023-02-28T11:24:49;14.85;;;11.73;;
72813;SDS011;60945;48.516;-2.768;2023-02-28T11:29:59;15.77;;;14.48;;
72813;SDS011;60945;48.516;-2.768;2023-02-28T11:32:26;15.23;;;13.65;;
72813;SDS011;60945;48.516;-2.768;2023-02-28T11:35:17;14.88;;;13.38;;
72813;SDS011;60945;48.516;-2.768;2023-02-28T11:37:59;22.50;;;20.65;;
72813;SDS011;60945;48.516;-2.768;2023-02-28T11:40:36;12.95;;;11.43;;
72813;SDS011;60945;48.516;-2.768;2023-02-28T11:46:31;14.85;;;12.52;;
72813;SDS011;60945;48.516;-2.768;2023-02-28T11:51:52;15.35;;;11.98;;
72813;SDS011;60945;48.516;-2.768;2023-02-28T12:03:19;14.60;;;12.90;;
72813;SDS011;60945;48.516;-2.768;2023-02-28T12:11:15;21.85;;;20.00;;
72813;SDS011;60945;48.516;-2.768;2023-02-28T12:20:10;22.20;;;20.27;;
72813;SDS011;60945;48.516;-2.768;2023-02-28T12:28:41;14.07;;;12.63;;
72813;SDS011;60945;48.516;-2.768;2023-02-28T12:31:16;14.77;;;12.75;;
72813;SDS011;60945;48.516;-2.768;2023-02-28T12:33:52;18.20;;;16.70;;
72813;SDS011;60945;48.516;-2.768;2023-02-28T12:36:21;16.50;;;14.88;;
72813;SDS011;60945;48.516;-2.768;2023-02-28T12:41:18;14.43;;;13.02;;
72813;SDS011;60945;48.516;-2.768;2023-02-28T12:43:55;17.58;;;15.95;;
72813;SDS011;60945;48.516;-2.768;2023-02-28T12:46:27;13.25;;;12.05;;
72813;SDS011;60945;48.516;-2.768;2023-02-28T12:49:00;24.70;;;22.77;;
72813;SDS011;60945;48.516;-2.768;2023-02-28T12:51:31;14.02;;;12.35;;
72813;SDS011;60945;48.516;-2.768;2023-02-28T12:59:57;17.55;;;15.85;;
72813;SDS011;60945;48.516;-2.768;2023-02-28T13:10:08;12.07;;;10.80;;
72813;SDS011;60945;48.516;-2.768;2023-02-28T13:12:35;17.88;;;16.08;;
72813;SDS011;60945;48.516;-2.768;2023-02-28T13:15:05;12.30;;;10.95;;
72813;SDS011;60945;48.516;-2.768;2023-02-28T13:17:40;15.95;;;11.55;;
72813;SDS011;60945;48.516;-2.768;2023-02-28T13:20:15;19.10;;;17.42;;
72813;SDS011;60945;48.516;-2.768;2023-02-28T13:28:02;11.75;;;10.60;;
72813;SDS011;60945;48.516;-2.768;2023-02-28T13:41:57;14.10;;;12.90;;
72813;SDS011;60945;48.516;-2.768;2023-02-28T13:47:39;12.75;;;10.98;;
72813;SDS011;60945;48.516;-2.768;2023-02-28T14:03:50;14.77;;;11.68;;
72813;SDS011;60945;48.516;-2.768;2023-02-28T14:08:54;16.25;;;12.85;;
72813;SDS011;60945;48.516;-2.768;2023-02-28T14:11:30;13.18;;;11.82;;
72813;SDS011;60945;48.516;-2.768;2023-02-28T14:13:58;13.40;;;11.75;;
72813;SDS011;60945;48.516;-2.768;2023-02-28T14:16:46;12.70;;;11.50;;
72813;SDS011;60945;48.516;-2.768;2023-02-28T14:19:31;11.55;;;10.45;;
72813;SDS011;60945;48.516;-2.768;2023-02-28T14:24:42;10.93;;;9.87;;
72813;SDS011;60945;48.516;-2.768;2023-02-28T14:30:24;10.70;;;9.60;;
72813;SDS011;60945;48.516;-2.768;2023-02-28T14:36:06;16.17;;;14.52;;
72813;SDS011;60945;48.516;-2.768;2023-02-28T14:38:59;11.45;;;10.35;;
72813;SDS011;60945;48.516;-2.768;2023-02-28T14:41:34;10.77;;;9.40;;
72813;SDS011;60945;48.516;-2.768;2023-02-28T14:44:03;10.20;;;9.35;;
72813;SDS011;60945;48.516;-2.768;2023-02-28T14:46:38;9.32;;;8.25;;
72813;SDS011;60945;48.516;-2.768;2023-02-28T14:49:06;11.07;;;7.38;;
72813;SDS011;60945;48.516;-2.768;2023-02-28T14:57:05;6.70;;;6.07;;
72813;SDS011;60945;48.516;-2.768;2023-02-28T14:59:33;7.57;;;6.22;;
72813;SDS011;60945;48.516;-2.768;2023-02-28T15:02:16;9.88;;;9.07;;
72813;SDS011;60945;48.516;-2.768;2023-02-28T15:04:43;6.60;;;5.88;;
72813;SDS011;60945;48.516;-2.768;2023-02-28T15:07:18;8.18;;;6.20;;
72813;SDS011;60945;48.516;-2.768;2023-02-28T15:09:44;7.32;;;5.40;;
72813;SDS011;60945;48.516;-2.768;2023-02-28T15:12:13;6.35;;;5.18;;
72813;SDS011;60945;48.516;-2.768;2023-02-28T15:14:42;10.07;;;9.32;;
72813;SDS011;60945;48.516;-2.768;2023-02-28T15:17:14;5.93;;;5.18;;
72813;SDS011;60945;48.516;-2.768;2023-02-28T15:19:48;9.02;;;5.28;;
72813;SDS011;60945;48.516;-2.768;2023-02-28T15:22:19;7.18;;;4.97;;
72813;SDS011;60945;48.516;-2.768;2023-02-28T15:24:53;7.85;;;7.15;;
72813;SDS011;60945;48.516;-2.768;2023-02-28T15:27:21;9.90;;;5.18;;
72813;SDS011;60945;48.516;-2.768;2023-02-28T15:29:57;5.43;;;4.85;;
72813;SDS011;60945;48.516;-2.768;2023-02-28T15:32:32;7.10;;;5.25;;
72813;SDS011;60945;48.516;-2.768;2023-02-28T15:40:38;7.88;;;4.65;;
72813;SDS011;60945;48.516;-2.768;2023-02-28T15:43:13;6.47;;;4.30;;
72813;SDS011;60945;48.516;-2.768;2023-02-28T15:46:06;13.95;;;12.63;;
72813;SDS011;60945;48.516;-2.768;2023-02-28T15:48:44;5.20;;;4.80;;
72813;SDS011;60945;48.516;-2.768;2023-02-28T15:51:18;7.50;;;5.43;;
72813;SDS011;60945;48.516;-2.768;2023-02-28T15:58:54;6.45;;;4.65;;
72813;SDS011;60945;48.516;-2.768;2023-02-28T16:01:26;6.72;;;6.10;;
72813;SDS011;60945;48.516;-2.768;2023-02-28T16:03:59;6.00;;;5.10;;
72813;SDS011;60945;48.516;-2.768;2023-02-28T16:09:04;5.65;;;4.90;;
72813;SDS011;60945;48.516;-2.768;2023-02-28T16:11:33;7.15;;;6.43;;
72813;SDS011;60945;48.516;-2.768;2023-02-28T16:14:02;6.32;;;5.60;;
72813;SDS011;60945;48.516;-2.768;2023-02-28T16:16:30;9.05;;;8.45;;
72813;SDS011;60945;48.516;-2.768;2023-02-28T16:18:57;5.72;;;5.20;;
72813;SDS011;60945;48.516;-2.768;2023-02-28T16:21:23;10.55;;;9.73;;
72813;SDS011;60945;48.516;-2.768;2023-02-28T16:23:50;7.22;;;5.60;;
72813;SDS011;60945;48.516;-2.768;2023-02-28T16:26:21;9.30;;;5.50;;
72813;SDS011;60945;48.516;-2.768;2023-02-28T16:28:48;12.77;;;11.80;;
72813;SDS011;60945;48.516;-2.768;2023-02-28T16:31:14;6.88;;;4.90;;
72813;SDS011;60945;48.516;-2.768;2023-02-28T16:33:41;12.00;;;11.00;;
72813;SDS011;60945;48.516;-2.768;2023-02-28T16:36:11;6.65;;;5.57;;
72813;SDS011;60945;48.516;-2.768;2023-02-28T16:38:56;6.20;;;5.28;;
72813;SDS011;60945;48.516;-2.768;2023-02-28T16:41:23;6.63;;;5.15;;
72813;SDS011;60945;48.516;-2.768;2023-02-28T16:43:51;8.57;;;7.82;;
72813;SDS011;60945;48.516;-2.768;2023-02-28T16:46:30;7.38;;;6.78;;
72813;SDS011;60945;48.516;-2.768;2023-02-28T16:48:59;4.80;;;4.07;;
72813;SDS011;60945;48.516;-2.768;2023-02-28T16:51:25;7.45;;;4.50;;
72813;SDS011;60945;48.516;-2.768;2023-02-28T16:53:51;7.85;;;6.47;;
72813;SDS011;60945;48.516;-2.768;2023-02-28T16:56:18;6.15;;;4.70;;
72813;SDS011;60945;48.516;-2.768;2023-02-28T16:58:48;5.47;;;4.55;;
72813;SDS011;60945;48.516;-2.768;2023-02-28T17:01:15;8.60;;;7.78;;
72813;SDS011;60945;48.516;-2.768;2023-02-28T17:03:46;7.57;;;4.68;;
72813;SDS011;60945;48.516;-2.768;2023-02-28T17:06:19;7.18;;;5.00;;
72813;SDS011;60945;48.516;-2.768;2023-02-28T17:08:51;7.22;;;4.95;;
72813;SDS011;60945;48.516;-2.768;2023-02-28T17:11:17;7.25;;;4.43;;
72813;SDS011;60945;48.516;-2.768;2023-02-28T17:13:43;5.15;;;4.65;;
72813;SDS011;60945;48.516;-2.768;2023-02-28T17:16:20;5.97;;;4.70;;
72813;SDS011;60945;48.516;-2.768;2023-02-28T17:18:54;8.40;;;5.25;;
72813;SDS011;60945;48.516;-2.768;2023-02-28T17:21:22;9.35;;;7.57;;
72813;SDS011;60945;48.516;-2.768;2023-02-28T17:23:47;9.40;;;6.28;;
72813;SDS011;60945;48.516;-2.768;2023-02-28T17:26:16;9.25;;;7.25;;
72813;SDS011;60945;48.516;-2.768;2023-02-28T17:28:49;10.07;;;6.57;;
72813;SDS011;60945;48.516;-2.768;2023-02-28T17:31:15;7.30;;;5.88;;
72813;SDS011;60945;48.516;-2.768;2023-02-28T17:33:41;7.47;;;6.35;;
72813;SDS011;60945;48.516;-2.768;2023-02-28T17:36:10;7.13;;;6.05;;
72813;SDS011;60945;48.516;-2.768;2023-02-28T17:38:42;6.85;;;6.15;;
72813;SDS011;60945;48.516;-2.768;2023-02-28T17:41:11;11.05;;;6.30;;
72813;SDS011;60945;48.516;-2.768;2023-02-28T17:43:38;7.88;;;6.18;;